Wood River Junction, Rhode Island
Current Conditions -  °F | °C
As of 7:53 AM on Thursday 27 Nov 2014 (Local Time) from KWST Reporting Station
Overcast Overcast  
Wind Chill: 33°   Ceiling: 5500
Heat Index: 33°   Visibility: 10mi
Dew Point: 31°   Wind: 3mph
Humidity: 92%   Direction: 260°W
Pressure: 29.94"   Gusts: NA
Location:  41.44°N, 71.69°W
Report Text: KWST 271253Z AUTO 26003KT 10SM OVC055 01/M01 A2994 RMK AO2 SLP140 T00061006
Loading
Personal Weather Stations






























Interactive Weather Map New forecast layout! Learn more

10-Day Weather Forecast

Advertisements
Track Severe Weather on mobile